sensor_id;sensor_type;location;lat;lon;timestamp;pressure;altitude;pressure_sealevel;temperature;humidity
79455;BME280;68900;52.134;5.420;2024-02-26T01:36:01;100174.81;;;4.94;97.86
79455;BME280;68900;52.134;5.420;2024-02-26T01:38:54;100177.47;;;4.94;97.92
79455;BME280;68900;52.134;5.420;2024-02-26T01:41:28;100168.63;;;4.94;97.96
79455;BME280;68900;52.134;5.420;2024-02-26T01:43:55;100178.34;;;4.95;98.01
79455;BME280;68900;52.134;5.420;2024-02-26T01:46:25;100171.28;;;4.94;97.27
79455;BME280;68900;52.134;5.420;2024-02-26T01:48:54;100179.31;;;4.94;97.89
79455;BME280;68900;52.134;5.420;2024-02-26T01:51:22;100172.25;;;4.93;97.47
79455;BME280;68900;52.134;5.420;2024-02-26T01:53:49;100175.66;;;4.95;98.05
79455;BME280;68900;52.134;5.420;2024-02-26T01:56:17;100180.00;;;4.96;97.69
79455;BME280;68900;52.134;5.420;2024-02-26T01:58:45;100181.69;;;4.97;97.42
79455;BME280;68900;52.134;5.420;2024-02-26T02:01:12;100188.88;;;4.96;97.32
79455;BME280;68900;52.134;5.420;2024-02-26T02:03:46;100192.13;;;5.00;97.84
79455;BME280;68900;52.134;5.420;2024-02-26T02:06:12;100198.47;;;4.99;97.76
79455;BME280;68900;52.134;5.420;2024-02-26T02:08:40;100195.63;;;5.00;97.44
79455;BME280;68900;52.134;5.420;2024-02-26T02:11:10;100204.25;;;5.04;97.57
79455;BME280;68900;52.134;5.420;2024-02-26T02:17:57;100189.03;;;5.04;96.99
79455;BME280;68900;52.134;5.420;2024-02-26T02:20:39;100204.09;;;5.05;97.12
79455;BME280;68900;52.134;5.420;2024-02-26T02:27:14;100208.47;;;5.06;96.54
79455;BME280;68900;52.134;5.420;2024-02-26T02:33:22;100207.50;;;5.07;96.62
79455;BME280;68900;52.134;5.420;2024-02-26T02:35:50;100215.38;;;5.09;96.40
79455;BME280;68900;52.134;5.420;2024-02-26T02:38:18;100218.91;;;5.09;96.20
79455;BME280;68900;52.134;5.420;2024-02-26T02:40:45;100222.44;;;5.10;96.19
79455;BME280;68900;52.134;5.420;2024-02-26T02:43:14;100219.63;;;5.11;95.90
79455;BME280;68900;52.134;5.420;2024-02-26T02:45:41;100217.81;;;5.12;95.83
79455;BME280;68900;52.134;5.420;2024-02-26T02:48:07;100228.34;;;5.13;95.84
79455;BME280;68900;52.134;5.420;2024-02-26T02:50:34;100237.22;;;5.14;96.22
79455;BME280;68900;52.134;5.420;2024-02-26T02:53:03;100232.88;;;5.13;96.08
79455;BME280;68900;52.134;5.420;2024-02-26T02:55:32;100236.38;;;5.13;96.08
79455;BME280;68900;52.134;5.420;2024-02-26T02:57:58;100233.69;;;5.13;95.89
79455;BME280;68900;52.134;5.420;2024-02-26T03:00:25;100246.81;;;5.16;96.10
79455;BME280;68900;52.134;5.420;2024-02-26T03:02:55;100236.13;;;5.16;95.70
79455;BME280;68900;52.134;5.420;2024-02-26T03:05:22;100236.13;;;5.16;95.31
79455;BME280;68900;52.134;5.420;2024-02-26T03:30:06;100274.91;;;5.11;95.41
79455;BME280;68900;52.134;5.420;2024-02-26T03:32:42;100276.03;;;5.08;95.30
79455;BME280;68900;52.134;5.420;2024-02-26T03:59:26;100293.56;;;5.01;95.78
79455;BME280;68900;52.134;5.420;2024-02-26T05:03:08;100332.19;;;5.08;95.63
79455;BME280;68900;52.134;5.420;2024-02-26T05:05:48;100334.84;;;5.08;95.83
79455;BME280;68900;52.134;5.420;2024-02-26T05:08:40;100339.19;;;5.09;95.85
79455;BME280;68900;52.134;5.420;2024-02-26T05:17:06;100344.41;;;5.11;95.70
79455;BME280;68900;52.134;5.420;2024-02-26T15:33:56;101077.63;;;6.20;94.17
79455;BME280;68900;52.134;5.420;2024-02-26T15:36:23;101087.50;;;6.20;94.42
79455;BME280;68900;52.134;5.420;2024-02-26T15:38:51;101087.38;;;6.21;94.47
79455;BME280;68900;52.134;5.420;2024-02-26T15:41:18;101091.88;;;6.21;94.17
79455;BME280;68900;52.134;5.420;2024-02-26T15:43:52;101095.31;;;6.23;95.00
79455;BME280;68900;52.134;5.420;2024-02-26T15:46:22;101103.22;;;6.25;94.82
79455;BME280;68900;52.134;5.420;2024-02-26T15:48:52;101106.03;;;6.23;94.85
79455;BME280;68900;52.134;5.420;2024-02-26T15:55:20;101120.75;;;6.17;95.04
79455;BME280;68900;52.134;5.420;2024-02-26T16:58:22;101223.97;;;5.49;94.29
79455;BME280;68900;52.134;5.420;2024-02-26T17:42:09;101319.72;;;5.18;94.23
79455;BME280;68900;52.134;5.420;2024-02-26T17:46:07;101315.38;;;5.17;94.54
79455;BME280;68900;52.134;5.420;2024-02-26T18:03:58;101358.09;;;5.05;96.52
79455;BME280;68900;52.134;5.420;2024-02-26T20:19:08;101601.81;;;4.56;96.43
79455;BME280;68900;52.134;5.420;2024-02-26T20:22:45;101610.19;;;4.50;96.29
79455;BME280;68900;52.134;5.420;2024-02-26T20:25:35;101618.31;;;4.49;96.23
79455;BME280;68900;52.134;5.420;2024-02-26T20:28:21;101621.16;;;4.45;95.89
79455;BME280;68900;52.134;5.420;2024-02-26T20:31:05;101617.75;;;4.43;96.67
79455;BME280;68900;52.134;5.420;2024-02-26T21:08:46;101669.13;;;4.33;96.10
79455;BME280;68900;52.134;5.420;2024-02-26T21:11:45;101670.88;;;4.34;96.16
